createdAt,value
2019-03-11T00:00:11.419Z,14.09
2019-03-11T00:02:40.188Z,14.41
2019-03-11T00:05:09.459Z,14.05
2019-03-11T00:07:38.089Z,14.53
2019-03-11T00:10:08.423Z,14.10
2019-03-11T00:12:37.080Z,14.26
2019-03-11T00:15:08.192Z,14.14
2019-03-11T00:17:36.811Z,14.56
2019-03-11T00:20:08.106Z,14.47
2019-03-11T00:22:36.935Z,14.14
2019-03-11T00:25:05.656Z,13.95
2019-03-11T00:27:34.320Z,14.10
2019-03-11T00:30:03.344Z,13.89
2019-03-11T00:32:31.982Z,14.19
2019-03-11T00:35:00.721Z,14.03
2019-03-11T00:37:29.343Z,14.74
2019-03-11T00:39:57.983Z,14.14
2019-03-11T00:42:26.651Z,14.27
2019-03-11T00:44:55.364Z,14.18
2019-03-11T00:47:23.997Z,14.37
2019-03-11T00:49:52.674Z,14.00
2019-03-11T00:52:21.816Z,14.04
2019-03-11T00:54:50.439Z,14.64
2019-03-11T00:57:19.114Z,13.89
2019-03-11T00:59:47.743Z,13.14
2019-03-11T01:02:16.365Z,13.15
2019-03-11T01:04:45.038Z,13.58
2019-03-11T01:07:13.730Z,13.54
2019-03-11T01:09:42.363Z,13.22
2019-03-11T01:12:11.038Z,13.60
2019-03-11T01:14:39.672Z,13.47
2019-03-11T01:17:08.368Z,13.10
2019-03-11T01:19:37.044Z,13.79
2019-03-11T01:22:05.670Z,13.24
2019-03-11T01:24:35.331Z,12.84
2019-03-11T01:27:04.073Z,12.91
2019-03-11T01:29:32.625Z,12.96
2019-03-11T01:32:01.248Z,13.06
2019-03-11T01:34:29.927Z,12.96
2019-03-11T01:36:58.629Z,12.86
2019-03-11T01:39:27.260Z,12.94
2019-03-11T01:41:55.928Z,13.30
2019-03-11T01:44:24.621Z,12.76
2019-03-11T01:46:53.257Z,12.65
2019-03-11T01:49:23.987Z,13.22
2019-03-11T01:51:52.223Z,13.22
2019-03-11T01:54:20.854Z,13.50
2019-03-11T01:56:49.511Z,13.51
2019-03-11T01:59:18.203Z,13.43
2019-03-11T02:01:48.496Z,13.55
2019-03-11T02:04:17.228Z,13.68
2019-03-11T02:06:45.850Z,13.27
2019-03-11T02:09:14.578Z,13.62
2019-03-11T02:11:43.231Z,13.26
2019-03-11T02:14:11.855Z,13.17
2019-03-11T02:16:40.553Z,13.45
2019-03-11T02:19:09.232Z,13.98
2019-03-11T02:21:37.921Z,13.00
2019-03-11T02:24:07.361Z,13.28
2019-03-11T02:26:36.039Z,13.48
2019-03-11T02:29:04.667Z,14.11
2019-03-11T02:31:33.368Z,14.34
2019-03-11T02:34:02.026Z,14.09
2019-03-11T02:36:30.743Z,13.60
2019-03-11T02:38:59.373Z,13.35
2019-03-11T02:41:28.046Z,13.56
2019-03-11T02:43:56.689Z,13.44
2019-03-11T02:46:27.380Z,13.07
2019-03-11T02:48:56.065Z,13.76
2019-03-11T02:51:24.687Z,13.30
2019-03-11T02:53:53.321Z,13.09
2019-03-11T02:56:21.976Z,12.57
2019-03-11T02:58:50.672Z,12.60
2019-03-11T03:01:29.831Z,13.22
2019-03-11T03:04:00.096Z,12.73
2019-03-11T03:06:28.721Z,13.02
2019-03-11T03:08:57.395Z,12.50
2019-03-11T03:11:26.001Z,12.57
2019-03-11T03:13:54.702Z,12.77
2019-03-11T03:16:23.226Z,12.76
2019-03-11T03:18:51.857Z,12.94
2019-03-11T03:21:20.482Z,13.14
2019-03-11T03:23:49.142Z,13.13
2019-03-11T03:26:17.806Z,13.14
2019-03-11T03:28:46.481Z,13.25
2019-03-11T03:31:15.152Z,13.01
2019-03-11T03:33:43.776Z,12.93
2019-03-11T03:36:12.396Z,12.54
2019-03-11T03:38:41.078Z,12.99
2019-03-11T03:41:09.795Z,13.07
2019-03-11T03:43:38.421Z,13.26
2019-03-11T03:46:18.074Z,12.94
2019-03-11T03:48:37.623Z,12.70
2019-03-11T03:51:06.367Z,12.13
2019-03-11T03:53:35.115Z,12.95
2019-03-11T03:56:03.729Z,13.28
2019-03-11T03:58:32.368Z,13.23
2019-03-11T04:01:00.951Z,12.94
2019-03-11T04:03:29.576Z,12.76
2019-03-11T04:05:58.205Z,12.00
2019-03-11T04:08:26.864Z,11.62
2019-03-11T04:10:55.506Z,12.60
2019-03-11T04:13:25.218Z,12.52
2019-03-11T04:15:53.874Z,11.56
2019-03-11T04:18:23.484Z,11.49
2019-03-11T04:20:52.106Z,10.87
2019-03-11T04:23:20.762Z,10.66
2019-03-11T04:25:49.382Z,11.42
2019-03-11T04:28:18.850Z,11.35
2019-03-11T04:30:47.511Z,11.71
2019-03-11T04:33:16.139Z,12.11
2019-03-11T04:35:44.866Z,11.01
2019-03-11T04:38:13.511Z,10.40
2019-03-11T04:40:42.140Z,10.55
2019-03-11T04:43:10.769Z,10.79
2019-03-11T04:45:39.452Z,10.93
2019-03-11T04:48:08.084Z,10.75
2019-03-11T04:50:36.694Z,10.66
2019-03-11T04:53:05.440Z,11.14
2019-03-11T04:55:34.075Z,11.08
2019-03-11T04:58:02.778Z,10.92
2019-03-11T05:00:34.440Z,11.16
2019-03-11T05:03:03.153Z,11.33
2019-03-11T05:05:31.761Z,11.84
2019-03-11T05:08:00.434Z,11.93
2019-03-11T05:10:29.147Z,12.38
2019-03-11T05:12:57.772Z,11.54
2019-03-11T05:15:26.451Z,12.20
2019-03-11T05:17:55.079Z,12.74
2019-03-11T05:20:23.720Z,12.96
2019-03-11T05:22:54.658Z,12.23
2019-03-11T05:25:22.749Z,12.43
2019-03-11T05:27:51.451Z,12.16
2019-03-11T05:30:21.337Z,12.61
2019-03-11T05:32:49.981Z,12.75
2019-03-11T05:35:18.676Z,13.07
2019-03-11T05:37:47.341Z,12.65
2019-03-11T05:40:17.939Z,13.29
2019-03-11T05:42:46.937Z,13.25
2019-03-11T05:45:16.998Z,13.00
2019-03-11T05:47:45.641Z,13.16
2019-03-11T05:50:15.069Z,12.95
2019-03-11T05:52:43.935Z,12.46
2019-03-11T05:55:13.134Z,12.85
2019-03-11T05:57:41.770Z,12.62
2019-03-11T06:00:24.277Z,12.78
2019-03-11T06:02:52.995Z,12.38
2019-03-11T06:05:21.614Z,13.08
2019-03-11T06:07:50.272Z,12.98
2019-03-11T06:10:18.912Z,12.33
2019-03-11T06:12:47.527Z,12.67
2019-03-11T06:15:16.419Z,11.94
2019-03-11T06:17:45.325Z,12.60
2019-03-11T06:20:33.915Z,12.37
2019-03-11T06:23:04.195Z,12.10
2019-03-11T06:25:32.908Z,12.12
2019-03-11T06:28:02.839Z,11.78
2019-03-11T06:30:31.731Z,12.19
2019-03-11T06:33:00.380Z,13.02
2019-03-11T06:35:29.118Z,13.40
2019-03-11T06:37:57.757Z,13.02
2019-03-11T06:40:26.464Z,12.43
2019-03-11T06:42:55.128Z,13.45
2019-03-11T06:45:23.775Z,13.30
2019-03-11T06:47:52.393Z,14.16
2019-03-11T06:50:21.054Z,14.17
2019-03-11T06:52:49.745Z,13.66
2019-03-11T06:55:18.375Z,13.74
2019-03-11T06:57:47.114Z,13.67
2019-03-11T07:00:19.593Z,13.58
2019-03-11T07:02:48.234Z,13.56
2019-03-11T07:05:20.470Z,13.46
2019-03-11T07:07:47.338Z,13.64
2019-03-11T07:10:16.741Z,13.99
2019-03-11T07:12:45.413Z,14.06
2019-03-11T07:15:15.137Z,14.36
2019-03-11T07:17:43.971Z,14.23
2019-03-11T07:20:15.221Z,14.55
2019-03-11T07:22:43.846Z,14.39
2019-03-11T07:25:12.477Z,14.37
2019-03-11T07:27:41.224Z,15.40
2019-03-11T07:30:14.800Z,15.58
2019-03-11T07:32:43.428Z,14.80
2019-03-11T07:35:12.096Z,14.07
2019-03-11T07:37:40.716Z,14.39
2019-03-11T07:40:11.224Z,14.36
2019-03-11T07:42:39.897Z,14.61
2019-03-11T07:45:10.864Z,14.68
2019-03-11T07:47:39.497Z,14.77
2019-03-11T07:50:12.260Z,14.45
2019-03-11T07:52:40.890Z,14.88
2019-03-11T07:55:10.986Z,14.75
2019-03-11T07:57:39.734Z,15.48
2019-03-11T08:00:21.255Z,16.14
2019-03-11T08:02:49.944Z,14.84
2019-03-11T08:05:18.639Z,14.97
2019-03-11T08:07:47.319Z,15.42
2019-03-11T08:10:23.426Z,15.03
2019-03-11T08:12:52.062Z,15.49
2019-03-11T08:15:20.690Z,16.11
2019-03-11T08:17:49.433Z,15.69
2019-03-11T08:20:18.139Z,16.17
2019-03-11T08:22:46.771Z,15.74
2019-03-11T08:25:16.538Z,15.92
2019-03-11T08:27:45.265Z,16.43
2019-03-11T08:30:18.635Z,15.98
2019-03-11T08:32:47.376Z,15.60
2019-03-11T08:35:16.755Z,16.17
2019-03-11T08:37:45.389Z,16.11
2019-03-11T08:40:20.422Z,15.83
2019-03-11T08:42:49.050Z,16.85
2019-03-11T08:45:18.691Z,16.60
2019-03-11T08:47:47.463Z,16.59
2019-03-11T08:50:16.684Z,16.32
2019-03-11T08:52:45.294Z,16.78
2019-03-11T08:55:14.714Z,16.91
2019-03-11T08:57:43.418Z,17.02
2019-03-11T09:00:19.688Z,15.90
2019-03-11T09:02:48.324Z,16.58
2019-03-11T09:05:18.535Z,16.51
2019-03-11T09:07:47.199Z,16.87
2019-03-11T09:10:16.828Z,16.65
2019-03-11T09:12:45.465Z,15.93
2019-03-11T09:15:18.394Z,16.58
2019-03-11T09:17:47.103Z,16.54
2019-03-11T09:20:16.979Z,16.13
2019-03-11T09:22:45.783Z,17.07
2019-03-11T09:25:27.685Z,16.38
2019-03-11T09:27:56.348Z,16.93
2019-03-11T09:30:24.959Z,16.15
2019-03-11T09:32:53.659Z,16.93
2019-03-11T09:35:22.337Z,16.92
2019-03-11T09:37:50.962Z,17.14
2019-03-11T09:40:20.600Z,16.90
2019-03-11T09:42:49.266Z,16.76
2019-03-11T09:45:18.902Z,16.69
2019-03-11T09:47:48.031Z,17.16
2019-03-11T09:50:17.478Z,17.29
2019-03-11T09:52:46.109Z,16.92
2019-03-11T09:55:30.929Z,16.38
2019-03-11T09:57:59.563Z,15.98
2019-03-11T10:00:30.402Z,15.61
2019-03-11T10:02:59.065Z,16.02
2019-03-11T10:05:27.705Z,15.41
2019-03-11T10:07:56.523Z,15.33
2019-03-11T10:10:26.733Z,15.45
2019-03-11T10:12:55.371Z,15.21
2019-03-11T10:15:24.167Z,14.93
2019-03-11T10:17:52.838Z,14.70
2019-03-11T10:20:21.664Z,15.01
2019-03-11T10:22:50.410Z,15.38
2019-03-11T10:25:22.405Z,14.66
2019-03-11T10:27:51.034Z,14.56
2019-03-11T10:30:20.474Z,14.74
2019-03-11T10:32:49.239Z,14.80
2019-03-11T10:35:31.275Z,14.84
2019-03-11T10:37:49.035Z,14.62
2019-03-11T10:40:22.292Z,14.37
2019-03-11T10:42:50.921Z,14.61
2019-03-11T10:45:30.198Z,14.64
2019-03-11T10:47:49.968Z,14.95
2019-03-11T10:50:20.369Z,14.42
2019-03-11T10:52:49.100Z,14.25
2019-03-11T10:55:18.761Z,14.82
2019-03-11T10:57:47.463Z,14.76
2019-03-11T11:00:19.372Z,15.38
2019-03-11T11:02:48.025Z,15.31
2019-03-11T11:05:16.661Z,14.91
2019-03-11T11:07:45.301Z,14.68
2019-03-11T11:10:16.943Z,14.70
2019-03-11T11:12:45.673Z,14.65
2019-03-11T11:15:19.614Z,15.27
2019-03-11T11:17:48.272Z,15.45
2019-03-11T11:20:18.709Z,14.79
2019-03-11T11:22:47.412Z,15.35
2019-03-11T11:25:17.984Z,15.28
2019-03-11T11:27:46.632Z,15.58
2019-03-11T11:30:20.092Z,15.79
2019-03-11T11:32:48.783Z,15.27
2019-03-11T11:35:17.917Z,15.53
2019-03-11T11:37:46.531Z,16.12
2019-03-11T11:40:31.468Z,15.61
2019-03-11T11:43:00.174Z,16.06
2019-03-11T11:45:30.063Z,16.77
2019-03-11T11:47:58.733Z,16.86
2019-03-11T11:50:27.522Z,16.81
2019-03-11T11:52:56.253Z,16.99
2019-03-11T11:55:25.146Z,16.49
2019-03-11T11:57:53.869Z,16.01
2019-03-11T12:00:26.046Z,15.60
2019-03-11T12:02:54.688Z,16.06
2019-03-11T12:05:23.418Z,16.37
2019-03-11T12:07:52.172Z,16.25
2019-03-11T12:10:30.819Z,15.88
2019-03-11T12:12:59.440Z,15.65
2019-03-11T12:15:28.139Z,16.22
2019-03-11T12:17:56.891Z,15.99
2019-03-11T12:20:28.427Z,16.63
2019-03-11T12:22:57.131Z,16.99
2019-03-11T12:25:25.810Z,16.84
2019-03-11T12:27:55.003Z,17.13
2019-03-11T12:30:31.498Z,17.62
2019-03-11T12:33:00.125Z,17.89
2019-03-11T12:35:28.847Z,16.24
2019-03-11T12:37:57.899Z,16.46
2019-03-11T12:40:26.520Z,17.27
2019-03-11T12:42:55.413Z,17.14
2019-03-11T12:45:24.967Z,16.38
2019-03-11T12:47:53.594Z,16.77
2019-03-11T12:50:26.513Z,17.32
2019-03-11T12:52:55.088Z,16.70
2019-03-11T12:55:23.720Z,16.60
2019-03-11T12:57:52.348Z,16.16
2019-03-11T13:00:24.648Z,16.12
2019-03-11T13:02:53.274Z,16.18
2019-03-11T13:05:22.313Z,16.81
2019-03-11T13:07:50.962Z,16.53
2019-03-11T13:10:25.386Z,16.41
2019-03-11T13:12:54.111Z,16.89
2019-03-11T13:15:22.770Z,16.28
2019-03-11T13:17:51.498Z,15.43
2019-03-11T13:20:37.925Z,15.71
2019-03-11T13:23:06.557Z,16.04
2019-03-11T13:25:35.186Z,15.79
2019-03-11T13:28:03.843Z,15.98
2019-03-11T13:30:32.466Z,17.05
2019-03-11T13:33:01.098Z,17.13
2019-03-11T13:35:29.763Z,16.66
2019-03-11T13:37:58.390Z,16.46
2019-03-11T13:40:27.013Z,16.05
2019-03-11T13:42:55.696Z,15.85
2019-03-11T13:45:24.319Z,15.51
2019-03-11T13:47:52.946Z,15.47
2019-03-11T13:50:21.614Z,15.67
2019-03-11T13:52:50.241Z,15.68
2019-03-11T13:55:18.876Z,15.33
2019-03-11T13:57:47.942Z,14.70
2019-03-11T14:00:21.405Z,14.71
2019-03-11T14:02:50.126Z,14.89
2019-03-11T14:05:18.905Z,14.84
2019-03-11T14:07:47.526Z,15.23
2019-03-11T14:10:16.563Z,15.53
2019-03-11T14:12:45.297Z,15.39
2019-03-11T14:15:18.637Z,14.97
2019-03-11T14:17:47.335Z,14.82
2019-03-11T14:22:58.169Z,13.89
2019-03-11T14:25:26.864Z,14.51
2019-03-11T14:27:55.563Z,14.18
2019-03-11T14:30:24.419Z,14.18
2019-03-11T14:32:53.079Z,14.23
2019-03-11T14:35:21.762Z,14.50
2019-03-11T14:37:50.429Z,14.52
2019-03-11T14:40:20.065Z,14.91
2019-03-11T14:42:48.694Z,14.66
2019-03-11T14:45:22.138Z,14.42
2019-03-11T14:47:50.755Z,14.20
2019-03-11T14:50:19.386Z,13.86
2019-03-11T14:52:48.048Z,13.24
2019-03-11T14:55:16.743Z,13.27
2019-03-11T14:57:45.387Z,13.55
2019-03-11T15:00:18.332Z,13.56
2019-03-11T15:02:46.399Z,12.88
2019-03-11T15:05:16.791Z,13.09
2019-03-11T15:07:45.653Z,12.44
2019-03-11T15:10:15.863Z,12.39
2019-03-11T15:12:44.488Z,12.27
2019-03-11T15:15:23.574Z,12.03
2019-03-11T15:17:52.203Z,11.92
2019-03-11T15:20:20.833Z,12.40
2019-03-11T15:22:49.593Z,11.26
2019-03-11T15:25:19.101Z,11.55
2019-03-11T15:27:48.019Z,11.77
2019-03-11T15:30:23.821Z,11.52
2019-03-11T15:32:52.547Z,11.31
2019-03-11T15:35:21.179Z,11.35
2019-03-11T15:37:49.876Z,11.27
2019-03-11T15:40:19.208Z,10.98
2019-03-11T15:42:48.191Z,11.34
2019-03-11T15:45:20.209Z,11.70
2019-03-11T15:47:48.836Z,11.16
2019-03-11T15:50:26.399Z,10.77
2019-03-11T15:52:55.031Z,10.92
2019-03-11T15:55:23.661Z,11.01
2019-03-11T15:57:52.337Z,10.77
2019-03-11T16:00:23.097Z,10.33
2019-03-11T16:02:51.792Z,10.64
2019-03-11T16:05:25.181Z,10.61
2019-03-11T16:07:53.853Z,9.99
2019-03-11T16:10:22.645Z,10.11
2019-03-11T16:12:51.389Z,10.06
2019-03-11T16:15:20.227Z,10.13
2019-03-11T16:17:48.855Z,10.40
2019-03-11T16:20:19.699Z,10.05
2019-03-11T16:22:48.526Z,10.28
2019-03-11T16:25:17.175Z,10.11
2019-03-11T16:27:45.856Z,10.56
2019-03-11T16:30:22.956Z,10.52
2019-03-11T16:32:59.385Z,10.59
2019-03-11T16:35:23.454Z,11.12
2019-03-11T16:37:52.088Z,11.19
2019-03-11T16:40:20.766Z,11.91
2019-03-11T16:42:49.367Z,10.48
2019-03-11T16:45:19.475Z,9.56
2019-03-11T16:47:48.614Z,9.92
2019-03-11T16:50:19.414Z,9.46
2019-03-11T16:52:48.035Z,9.17
2019-03-11T16:55:21.007Z,9.78
2019-03-11T16:57:49.626Z,9.56
2019-03-11T17:00:22.238Z,9.54
2019-03-11T17:02:51.374Z,9.78
2019-03-11T17:05:20.003Z,9.62
2019-03-11T17:07:48.644Z,9.44
2019-03-11T17:10:20.616Z,9.74
2019-03-11T17:12:49.337Z,9.62
2019-03-11T17:15:18.046Z,8.76
2019-03-11T17:17:46.710Z,8.76
2019-03-11T17:20:17.606Z,9.54
2019-03-11T17:22:46.304Z,9.80
2019-03-11T17:25:15.287Z,9.32
2019-03-11T17:27:43.994Z,10.03
2019-03-11T17:30:17.497Z,9.94
2019-03-11T17:32:46.162Z,10.17
2019-03-11T17:35:16.364Z,9.97
2019-03-11T17:37:45.377Z,9.64
2019-03-11T17:40:21.183Z,9.06
2019-03-11T17:42:49.940Z,8.43
2019-03-11T17:45:18.534Z,8.68
2019-03-11T17:47:47.465Z,8.70
2019-03-11T17:50:18.139Z,8.58
2019-03-11T17:52:47.158Z,8.89
2019-03-11T17:55:17.409Z,8.79
2019-03-11T17:57:46.930Z,8.84
2019-03-11T18:00:25.057Z,8.78
2019-03-11T18:02:52.576Z,8.34
2019-03-11T18:05:21.466Z,8.10
2019-03-11T18:07:50.165Z,8.34
2019-03-11T18:10:18.765Z,8.97
2019-03-11T18:12:47.472Z,9.15
2019-03-11T18:15:16.406Z,8.87
2019-03-11T18:17:45.105Z,8.87
2019-03-11T18:20:16.720Z,8.79
2019-03-11T18:22:45.381Z,8.73
2019-03-11T18:25:18.895Z,9.19
2019-03-11T18:27:47.558Z,9.60
2019-03-11T18:30:27.362Z,9.32
2019-03-11T18:32:55.982Z,8.85
2019-03-11T18:35:24.614Z,8.82
2019-03-11T18:38:03.527Z,8.68
2019-03-11T18:40:23.697Z,8.78
2019-03-11T18:42:52.351Z,8.29
2019-03-11T18:45:21.032Z,8.27
2019-03-11T18:47:49.674Z,8.39
2019-03-11T18:50:24.929Z,8.39
2019-03-11T18:52:53.642Z,7.99
2019-03-11T18:55:22.382Z,8.40
2019-03-11T18:57:51.090Z,8.32
2019-03-11T19:00:21.145Z,8.49
2019-03-11T19:02:49.820Z,8.33
2019-03-11T19:05:22.703Z,8.10
2019-03-11T19:07:51.357Z,7.78
2019-03-11T19:10:20.087Z,8.99
2019-03-11T19:12:48.711Z,8.90
2019-03-11T19:15:25.002Z,7.81
2019-03-11T19:17:53.661Z,8.02
2019-03-11T19:20:23.448Z,7.97
